VJC665 VVCR-VVNB
Flight info
| Callsign | VJC665 |
|---|---|
| Flight time | N/A |
| Altitude | 33000 |
| Route | NIHOA1A NIHOA W2 KUMUN/K0861F350 W2 DAN Q1 NAH NAH1A |
| Aircraft | A21N/M-SDE3FGHIRWY/LB1 |
Departure
| Time | N/A |
|---|---|
| Airport | Cam Ranh International Airport / Cam Ranh Air Base (VVCR) |
Arrival
| Time | 2026-05-08 16:37 |
|---|---|
| Airport | Noi Bai International Airport (VVNB) |
| Time | Latitude | Longitude | Altitude | Speed | Heading |
|---|---|---|---|---|---|
| 2026-05-08 16:02 | 18.19854 | 107.17326 | 32939 ft | 441 kts | 336° |
| 2026-05-08 16:03 | 18.25261 | 107.14820 | 32939 ft | 441 kts | 336° |
| 2026-05-08 16:03 | 18.30882 | 107.12215 | 32938 ft | 442 kts | 336° |
| 2026-05-08 16:04 | 18.36547 | 107.09586 | 32939 ft | 443 kts | 336° |
| 2026-05-08 16:04 | 18.42194 | 107.06963 | 32939 ft | 443 kts | 336° |
| 2026-05-08 16:05 | 18.47827 | 107.04344 | 32940 ft | 442 kts | 336° |
| 2026-05-08 16:05 | 18.53467 | 107.01727 | 32940 ft | 441 kts | 335° |
| 2026-05-08 16:06 | 18.59108 | 106.99107 | 32940 ft | 441 kts | 335° |
| 2026-05-08 16:06 | 18.64732 | 106.96491 | 32940 ft | 442 kts | 335° |
| 2026-05-08 16:07 | 18.70360 | 106.93871 | 32939 ft | 441 kts | 335° |
| 2026-05-08 16:07 | 18.75964 | 106.91260 | 32941 ft | 441 kts | 335° |
| 2026-05-08 16:08 | 18.81582 | 106.88643 | 32941 ft | 440 kts | 335° |
| 2026-05-08 16:08 | 18.87192 | 106.86027 | 32939 ft | 440 kts | 335° |
| 2026-05-08 16:09 | 18.92842 | 106.83388 | 32939 ft | 441 kts | 335° |
| 2026-05-08 16:09 | 18.98427 | 106.80776 | 32939 ft | 441 kts | 335° |
| 2026-05-08 16:10 | 19.04063 | 106.78140 | 32942 ft | 441 kts | 335° |
| 2026-05-08 16:10 | 19.09709 | 106.75495 | 32942 ft | 441 kts | 335° |
| 2026-05-08 16:11 | 19.15322 | 106.72860 | 32941 ft | 441 kts | 335° |
| 2026-05-08 16:11 | 19.20933 | 106.70226 | 32940 ft | 440 kts | 335° |
| 2026-05-08 16:12 | 19.26539 | 106.67537 | 32942 ft | 439 kts | 334° |
| 2026-05-08 16:12 | 19.32068 | 106.64800 | 32943 ft | 440 kts | 334° |
| 2026-05-08 16:13 | 19.37649 | 106.62038 | 32939 ft | 440 kts | 334° |
| 2026-05-08 16:13 | 19.43205 | 106.59290 | 32941 ft | 440 kts | 333° |
| 2026-05-08 16:14 | 19.48767 | 106.56540 | 32942 ft | 439 kts | 333° |
| 2026-05-08 16:14 | 19.54302 | 106.53801 | 32940 ft | 439 kts | 333° |
| 2026-05-08 16:15 | 19.59867 | 106.51045 | 32941 ft | 439 kts | 333° |
| 2026-05-08 16:15 | 19.65414 | 106.48295 | 32940 ft | 439 kts | 333° |
| 2026-05-08 16:16 | 19.70959 | 106.45546 | 32941 ft | 439 kts | 333° |
| 2026-05-08 16:16 | 19.76529 | 106.42781 | 32939 ft | 439 kts | 333° |
| 2026-05-08 16:17 | 19.82092 | 106.40018 | 32174 ft | 448 kts | 333° |
| 2026-05-08 16:17 | 19.84945 | 106.38598 | 31261 ft | 453 kts | 333° |
| 2026-05-08 16:17 | 19.87795 | 106.37180 | 30423 ft | 456 kts | 334° |
| 2026-05-08 16:18 | 19.90693 | 106.35738 | 29608 ft | 457 kts | 334° |
| 2026-05-08 16:18 | 19.93563 | 106.34309 | 28819 ft | 458 kts | 334° |
| 2026-05-08 16:18 | 19.96457 | 106.32868 | 28033 ft | 458 kts | 334° |
| 2026-05-08 16:18 | 19.99347 | 106.31431 | 27348 ft | 456 kts | 334° |
| 2026-05-08 16:19 | 20.02198 | 106.30012 | 26850 ft | 450 kts | 334° |
| 2026-05-08 16:19 | 20.05021 | 106.28606 | 26348 ft | 444 kts | 334° |
| 2026-05-08 16:19 | 20.07818 | 106.27212 | 25849 ft | 438 kts | 334° |
| 2026-05-08 16:19 | 20.10575 | 106.25838 | 25350 ft | 433 kts | 334° |
| 2026-05-08 16:20 | 20.13309 | 106.24474 | 24864 ft | 428 kts | 334° |
| 2026-05-08 16:20 | 20.16003 | 106.23128 | 24389 ft | 423 kts | 334° |
| 2026-05-08 16:20 | 20.18669 | 106.21797 | 23918 ft | 418 kts | 334° |
| 2026-05-08 16:20 | 20.21304 | 106.20480 | 23457 ft | 414 kts | 334° |
| 2026-05-08 16:21 | 20.23919 | 106.19170 | 22994 ft | 410 kts | 334° |
| 2026-05-08 16:21 | 20.26513 | 106.17870 | 22521 ft | 406 kts | 334° |
| 2026-05-08 16:21 | 20.29056 | 106.16595 | 22055 ft | 403 kts | 335° |
| 2026-05-08 16:21 | 20.31613 | 106.15317 | 21580 ft | 401 kts | 335° |
| 2026-05-08 16:22 | 20.34122 | 106.14065 | 21094 ft | 399 kts | 335° |
| 2026-05-08 16:22 | 20.36647 | 106.12781 | 20602 ft | 397 kts | 333° |
| 2026-05-08 16:22 | 20.39060 | 106.11391 | 20114 ft | 396 kts | 330° |
| 2026-05-08 16:22 | 20.41389 | 106.09847 | 19621 ft | 395 kts | 327° |
| 2026-05-08 16:23 | 20.43689 | 106.08196 | 19102 ft | 394 kts | 326° |
| 2026-05-08 16:23 | 20.45953 | 106.06553 | 18581 ft | 394 kts | 326° |
| 2026-05-08 16:23 | 20.48223 | 106.04902 | 18046 ft | 394 kts | 326° |
| 2026-05-08 16:23 | 20.50484 | 106.03258 | 17506 ft | 394 kts | 326° |
| 2026-05-08 16:24 | 20.52744 | 106.01615 | 16985 ft | 394 kts | 326° |
| 2026-05-08 16:24 | 20.55023 | 105.99960 | 16486 ft | 392 kts | 326° |
| 2026-05-08 16:24 | 20.57292 | 105.98312 | 15996 ft | 391 kts | 325° |
| 2026-05-08 16:24 | 20.59538 | 105.96679 | 15509 ft | 389 kts | 325° |
| 2026-05-08 16:25 | 20.61781 | 105.95050 | 15029 ft | 387 kts | 325° |
| 2026-05-08 16:25 | 20.64016 | 105.93426 | 14561 ft | 384 kts | 325° |
| 2026-05-08 16:25 | 20.66225 | 105.91821 | 14098 ft | 381 kts | 325° |
| 2026-05-08 16:25 | 20.68420 | 105.90224 | 13639 ft | 379 kts | 325° |
| 2026-05-08 16:26 | 20.70593 | 105.88643 | 13162 ft | 376 kts | 325° |
| 2026-05-08 16:26 | 20.72524 | 105.87236 | 12742 ft | 373 kts | 325° |
| 2026-05-08 16:26 | 20.74699 | 105.85651 | 12293 ft | 370 kts | 325° |
| 2026-05-08 16:26 | 20.76817 | 105.84108 | 11824 ft | 367 kts | 325° |
| 2026-05-08 16:27 | 20.78952 | 105.82552 | 11353 ft | 364 kts | 325° |
| 2026-05-08 16:27 | 20.81024 | 105.81041 | 10881 ft | 361 kts | 325° |
| 2026-05-08 16:27 | 20.83101 | 105.79527 | 10495 ft | 355 kts | 325° |
| 2026-05-08 16:27 | 20.85150 | 105.78033 | 10232 ft | 345 kts | 325° |
| 2026-05-08 16:28 | 20.87092 | 105.76616 | 10123 ft | 331 kts | 325° |
| 2026-05-08 16:28 | 20.88967 | 105.75247 | 10040 ft | 316 kts | 325° |
| 2026-05-08 16:28 | 20.90749 | 105.73947 | 9960 ft | 303 kts | 325° |
| 2026-05-08 16:28 | 20.92511 | 105.72659 | 9614 ft | 300 kts | 325° |
| 2026-05-08 16:29 | 20.94225 | 105.71405 | 9244 ft | 299 kts | 325° |
| 2026-05-08 16:29 | 20.95967 | 105.70130 | 8882 ft | 297 kts | 325° |
| 2026-05-08 16:29 | 20.97670 | 105.68884 | 8536 ft | 295 kts | 326° |
| 2026-05-08 16:29 | 20.99376 | 105.67635 | 8193 ft | 292 kts | 326° |
| 2026-05-08 16:30 | 21.01041 | 105.66418 | 7968 ft | 285 kts | 326° |
| 2026-05-08 16:30 | 21.02634 | 105.65260 | 7948 ft | 269 kts | 328° |
| 2026-05-08 16:30 | 21.04333 | 105.64477 | 7941 ft | 261 kts | 349° |
| 2026-05-08 16:30 | 21.06147 | 105.64236 | 7715 ft | 266 kts | 356° |
| 2026-05-08 16:31 | 21.07849 | 105.64111 | 7226 ft | 273 kts | 358° |
| 2026-05-08 16:31 | 21.09776 | 105.63983 | 6718 ft | 279 kts | 358° |
| 2026-05-08 16:31 | 21.11726 | 105.63845 | 6225 ft | 283 kts | 358° |
| 2026-05-08 16:31 | 21.13726 | 105.63693 | 5730 ft | 287 kts | 358° |
| 2026-05-08 16:32 | 21.15717 | 105.63535 | 5239 ft | 290 kts | 358° |
| 2026-05-08 16:32 | 21.17766 | 105.63371 | 4733 ft | 293 kts | 358° |
| 2026-05-08 16:32 | 21.19823 | 105.63203 | 4224 ft | 296 kts | 358° |
| 2026-05-08 16:32 | 21.21875 | 105.63035 | 3715 ft | 298 kts | 358° |
| 2026-05-08 16:33 | 21.23982 | 105.62862 | 3192 ft | 300 kts | 359° |
| 2026-05-08 16:33 | 21.26047 | 105.62910 | 2582 ft | 300 kts | 16° |
| 2026-05-08 16:33 | 21.27841 | 105.63996 | 2108 ft | 287 kts | 49° |
| 2026-05-08 16:33 | 21.28675 | 105.65802 | 1958 ft | 261 kts | 83° |
| 2026-05-08 16:34 | 21.28361 | 105.67621 | 1954 ft | 240 kts | 116° |
| 2026-05-08 16:34 | 21.27471 | 105.69085 | 1935 ft | 229 kts | 123° |
| 2026-05-08 16:34 | 21.26546 | 105.70412 | 1748 ft | 216 kts | 124° |
| 2026-05-08 16:34 | 21.25648 | 105.71674 | 1543 ft | 204 kts | 125° |
| 2026-05-08 16:35 | 21.24834 | 105.72837 | 1312 ft | 183 kts | 122° |
| 2026-05-08 16:35 | 21.24222 | 105.73966 | 1059 ft | 168 kts | 114° |
| 2026-05-08 16:35 | 21.23786 | 105.75055 | 826 ft | 152 kts | 109° |
| 2026-05-08 16:35 | 21.23425 | 105.76114 | 636 ft | 147 kts | 106° |
| 2026-05-08 16:36 | 21.23125 | 105.77162 | 477 ft | 147 kts | 105° |
| 2026-05-08 16:36 | 21.22834 | 105.78201 | 286 ft | 146 kts | 106° |
| 2026-05-08 16:36 | 21.22526 | 105.79254 | 87 ft | 146 kts | 106° |
| 2026-05-08 16:36 | 21.22241 | 105.80244 | 52 ft | 121 kts | 105° |
| 2026-05-08 16:37 | 21.22042 | 105.80932 | 51 ft | 72 kts | 107° |
| 2026-05-08 16:37 | 21.21935 | 105.81248 | 51 ft | 30 kts | 124° |
| 2026-05-08 16:37 | 21.21801 | 105.81393 | 51 ft | 20 kts | 136° |
| 2026-05-08 16:37 | 21.21705 | 105.81493 | 51 ft | 18 kts | 137° |
| 2026-05-08 16:38 | 21.21598 | 105.81564 | 51 ft | 18 kts | 176° |
| 2026-05-08 16:38 | 21.21482 | 105.81522 | 51 ft | 15 kts | 233° |
| 2026-05-08 16:38 | 21.21496 | 105.81413 | 51 ft | 15 kts | 287° |
| 2026-05-08 16:38 | 21.21528 | 105.81300 | 51 ft | 15 kts | 286° |